sensor_id;sensor_type;location;lat;lon;timestamp;P1;P2;P0
44312;PMS5003;38833;51.142;-0.974;2022-11-13T00:01:10;1;0;
44312;PMS5003;38833;51.142;-0.974;2022-11-13T00:03:49;1;1;
44312;PMS5003;38833;51.142;-0.974;2022-11-13T00:06:22;1;1;
44312;PMS5003;38833;51.142;-0.974;2022-11-13T00:08:55;2;2;
44312;PMS5003;38833;51.142;-0.974;2022-11-13T00:11:28;3;2;
44312;PMS5003;38833;51.142;-0.974;2022-11-13T00:14:02;1;1;
44312;PMS5003;38833;51.142;-0.974;2022-11-13T00:16:35;1;1;
44312;PMS5003;38833;51.142;-0.974;2022-11-13T00:19:08;1;1;
44312;PMS5003;38833;51.142;-0.974;2022-11-13T00:21:41;0;0;
44312;PMS5003;38833;51.142;-0.974;2022-11-13T00:24:14;0;0;
44312;PMS5003;38833;51.142;-0.974;2022-11-13T00:26:47;0;0;
44312;PMS5003;38833;51.142;-0.974;2022-11-13T00:29:21;1;1;
44312;PMS5003;38833;51.142;-0.974;2022-11-13T00:31:54;3;1;
44312;PMS5003;38833;51.142;-0.974;2022-11-13T00:34:27;0;0;
44312;PMS5003;38833;51.142;-0.974;2022-11-13T00:37:00;0;0;
44312;PMS5003;38833;51.142;-0.974;2022-11-13T00:39:34;2;2;
44312;PMS5003;38833;51.142;-0.974;2022-11-13T00:42:07;0;0;
44312;PMS5003;38833;51.142;-0.974;2022-11-13T00:44:41;0;0;
44312;PMS5003;38833;51.142;-0.974;2022-11-13T00:47:14;0;0;
44312;PMS5003;38833;51.142;-0.974;2022-11-13T00:49:47;1;0;
44312;PMS5003;38833;51.142;-0.974;2022-11-13T00:52:20;0;0;
44312;PMS5003;38833;51.142;-0.974;2022-11-13T00:54:54;4;1;
44312;PMS5003;38833;51.142;-0.974;2022-11-13T00:57:27;0;0;
44312;PMS5003;38833;51.142;-0.974;2022-11-13T01:00:00;2;0;
44312;PMS5003;38833;51.142;-0.974;2022-11-13T01:02:33;2;2;
44312;PMS5003;38833;51.142;-0.974;2022-11-13T01:05:06;1;1;
44312;PMS5003;38833;51.142;-0.974;2022-11-13T01:07:40;0;0;
44312;PMS5003;38833;51.142;-0.974;2022-11-13T01:10:13;0;0;
44312;PMS5003;38833;51.142;-0.974;2022-11-13T01:12:47;1;0;
44312;PMS5003;38833;51.142;-0.974;2022-11-13T01:15:20;0;0;
44312;PMS5003;38833;51.142;-0.974;2022-11-13T01:17:53;0;0;
44312;PMS5003;38833;51.142;-0.974;2022-11-13T01:20:26;0;0;
44312;PMS5003;38833;51.142;-0.974;2022-11-13T01:22:59;1;1;
44312;PMS5003;38833;51.142;-0.974;2022-11-13T01:25:33;0;0;
44312;PMS5003;38833;51.142;-0.974;2022-11-13T01:28:06;1;1;
44312;PMS5003;38833;51.142;-0.974;2022-11-13T01:30:40;2;0;
44312;PMS5003;38833;51.142;-0.974;2022-11-13T01:33:13;1;0;
44312;PMS5003;38833;51.142;-0.974;2022-11-13T01:35:46;1;0;
44312;PMS5003;38833;51.142;-0.974;2022-11-13T01:38:19;0;0;
44312;PMS5003;38833;51.142;-0.974;2022-11-13T01:40:53;1;1;
44312;PMS5003;38833;51.142;-0.974;2022-11-13T01:43:27;0;0;
44312;PMS5003;38833;51.142;-0.974;2022-11-13T01:46:07;2;0;
44312;PMS5003;38833;51.142;-0.974;2022-11-13T01:48:49;2;1;
44312;PMS5003;38833;51.142;-0.974;2022-11-13T01:51:26;1;1;
44312;PMS5003;38833;51.142;-0.974;2022-11-13T01:54:03;0;0;
44312;PMS5003;38833;51.142;-0.974;2022-11-13T01:56:43;4;2;
44312;PMS5003;38833;51.142;-0.974;2022-11-13T01:59:17;0;0;
44312;PMS5003;38833;51.142;-0.974;2022-11-13T02:01:54;1;1;
44312;PMS5003;38833;51.142;-0.974;2022-11-13T02:04:28;0;0;
44312;PMS5003;38833;51.142;-0.974;2022-11-13T02:07:04;1;1;
44312;PMS5003;38833;51.142;-0.974;2022-11-13T02:09:40;0;0;
44312;PMS5003;38833;51.142;-0.974;2022-11-13T02:12:16;2;0;
44312;PMS5003;38833;51.142;-0.974;2022-11-13T02:14:53;2;0;
44312;PMS5003;38833;51.142;-0.974;2022-11-13T02:17:29;1;0;
44312;PMS5003;38833;51.142;-0.974;2022-11-13T02:20:05;0;0;
44312;PMS5003;38833;51.142;-0.974;2022-11-13T02:22:42;0;0;
44312;PMS5003;38833;51.142;-0.974;2022-11-13T02:25:20;1;1;
44312;PMS5003;38833;51.142;-0.974;2022-11-13T02:27:56;0;0;
44312;PMS5003;38833;51.142;-0.974;2022-11-13T02:30:30;0;0;
44312;PMS5003;38833;51.142;-0.974;2022-11-13T02:33:17;2;0;
44312;PMS5003;38833;51.142;-0.974;2022-11-13T02:35:54;1;1;
44312;PMS5003;38833;51.142;-0.974;2022-11-13T02:38:27;3;2;
44312;PMS5003;38833;51.142;-0.974;2022-11-13T02:41:01;3;2;
44312;PMS5003;38833;51.142;-0.974;2022-11-13T02:43:34;7;5;
44312;PMS5003;38833;51.142;-0.974;2022-11-13T02:46:08;14;13;
44312;PMS5003;38833;51.142;-0.974;2022-11-13T02:48:41;16;13;
44312;PMS5003;38833;51.142;-0.974;2022-11-13T02:51:14;10;9;
44312;PMS5003;38833;51.142;-0.974;2022-11-13T02:53:47;7;6;
44312;PMS5003;38833;51.142;-0.974;2022-11-13T02:56:20;8;5;
44312;PMS5003;38833;51.142;-0.974;2022-11-13T02:58:54;7;5;
44312;PMS5003;38833;51.142;-0.974;2022-11-13T03:01:27;3;3;
44312;PMS5003;38833;51.142;-0.974;2022-11-13T03:04:00;2;1;
44312;PMS5003;38833;51.142;-0.974;2022-11-13T03:06:33;1;1;
44312;PMS5003;38833;51.142;-0.974;2022-11-13T03:09:06;0;0;
44312;PMS5003;38833;51.142;-0.974;2022-11-13T03:11:39;1;1;
44312;PMS5003;38833;51.142;-0.974;2022-11-13T03:14:14;2;0;
44312;PMS5003;38833;51.142;-0.974;2022-11-13T03:16:48;2;1;
44312;PMS5003;38833;51.142;-0.974;2022-11-13T03:19:21;1;1;
44312;PMS5003;38833;51.142;-0.974;2022-11-13T03:21:55;1;1;
44312;PMS5003;38833;51.142;-0.974;2022-11-13T03:24:28;6;2;
44312;PMS5003;38833;51.142;-0.974;2022-11-13T03:27:01;0;0;
44312;PMS5003;38833;51.142;-0.974;2022-11-13T03:29:34;0;0;
44312;PMS5003;38833;51.142;-0.974;2022-11-13T03:32:08;4;2;
44312;PMS5003;38833;51.142;-0.974;2022-11-13T03:34:41;0;0;
44312;PMS5003;38833;51.142;-0.974;2022-11-13T03:37:14;2;0;
44312;PMS5003;38833;51.142;-0.974;2022-11-13T03:39:47;1;1;
44312;PMS5003;38833;51.142;-0.974;2022-11-13T03:42:21;1;0;
44312;PMS5003;38833;51.142;-0.974;2022-11-13T03:44:54;0;0;
44312;PMS5003;38833;51.142;-0.974;2022-11-13T03:47:27;0;0;
44312;PMS5003;38833;51.142;-0.974;2022-11-13T03:50:00;3;2;
44312;PMS5003;38833;51.142;-0.974;2022-11-13T03:52:33;1;1;
44312;PMS5003;38833;51.142;-0.974;2022-11-13T03:55:07;0;0;
44312;PMS5003;38833;51.142;-0.974;2022-11-13T03:57:40;0;0;
44312;PMS5003;38833;51.142;-0.974;2022-11-13T04:00:13;1;0;
44312;PMS5003;38833;51.142;-0.974;2022-11-13T04:02:47;0;0;
44312;PMS5003;38833;51.142;-0.974;2022-11-13T04:05:20;0;0;
44312;PMS5003;38833;51.142;-0.974;2022-11-13T04:07:54;3;1;
44312;PMS5003;38833;51.142;-0.974;2022-11-13T04:10:27;0;0;
44312;PMS5003;38833;51.142;-0.974;2022-11-13T04:13:00;2;0;
44312;PMS5003;38833;51.142;-0.974;2022-11-13T04:15:33;1;1;
44312;PMS5003;38833;51.142;-0.974;2022-11-13T04:18:07;0;0;
44312;PMS5003;38833;51.142;-0.974;2022-11-13T04:20:40;0;0;
44312;PMS5003;38833;51.142;-0.974;2022-11-13T04:23:13;1;1;
44312;PMS5003;38833;51.142;-0.974;2022-11-13T04:25:47;1;0;
44312;PMS5003;38833;51.142;-0.974;2022-11-13T04:28:20;5;2;
44312;PMS5003;38833;51.142;-0.974;2022-11-13T04:30:54;4;3;
44312;PMS5003;38833;51.142;-0.974;2022-11-13T04:33:28;3;3;
44312;PMS5003;38833;51.142;-0.974;2022-11-13T04:36:01;5;5;
44312;PMS5003;38833;51.142;-0.974;2022-11-13T04:38:34;7;7;
44312;PMS5003;38833;51.142;-0.974;2022-11-13T04:41:08;0;0;
44312;PMS5003;38833;51.142;-0.974;2022-11-13T04:43:44;1;1;
44312;PMS5003;38833;51.142;-0.974;2022-11-13T04:46:17;0;0;
44312;PMS5003;38833;51.142;-0.974;2022-11-13T04:48:50;1;0;
44312;PMS5003;38833;51.142;-0.974;2022-11-13T04:51:24;0;0;
44312;PMS5003;38833;51.142;-0.974;2022-11-13T04:53:57;0;0;
44312;PMS5003;38833;51.142;-0.974;2022-11-13T04:56:30;1;1;
44312;PMS5003;38833;51.142;-0.974;2022-11-13T04:59:03;2;1;
44312;PMS5003;38833;51.142;-0.974;2022-11-13T05:02:22;1;0;
44312;PMS5003;38833;51.142;-0.974;2022-11-13T05:04:57;1;1;
44312;PMS5003;38833;51.142;-0.974;2022-11-13T05:07:30;1;1;
44312;PMS5003;38833;51.142;-0.974;2022-11-13T05:10:03;2;2;
44312;PMS5003;38833;51.142;-0.974;2022-11-13T05:12:37;0;0;
44312;PMS5003;38833;51.142;-0.974;2022-11-13T05:15:10;1;1;
44312;PMS5003;38833;51.142;-0.974;2022-11-13T05:17:47;2;0;
44312;PMS5003;38833;51.142;-0.974;2022-11-13T05:20:20;0;0;
44312;PMS5003;38833;51.142;-0.974;2022-11-13T05:22:53;1;1;
44312;PMS5003;38833;51.142;-0.974;2022-11-13T05:25:26;3;0;
44312;PMS5003;38833;51.142;-0.974;2022-11-13T05:27:59;1;1;
44312;PMS5003;38833;51.142;-0.974;2022-11-13T05:30:33;0;0;
44312;PMS5003;38833;51.142;-0.974;2022-11-13T05:33:06;0;0;
44312;PMS5003;38833;51.142;-0.974;2022-11-13T05:35:39;1;1;
44312;PMS5003;38833;51.142;-0.974;2022-11-13T05:38:12;1;1;
44312;PMS5003;38833;51.142;-0.974;2022-11-13T05:40:45;1;1;
44312;PMS5003;38833;51.142;-0.974;2022-11-13T05:43:19;4;1;
44312;PMS5003;38833;51.142;-0.974;2022-11-13T05:45:57;2;1;
44312;PMS5003;38833;51.142;-0.974;2022-11-13T05:48:32;1;1;
44312;PMS5003;38833;51.142;-0.974;2022-11-13T05:51:06;1;0;
44312;PMS5003;38833;51.142;-0.974;2022-11-13T05:53:41;4;1;
44312;PMS5003;38833;51.142;-0.974;2022-11-13T05:56:15;1;1;
44312;PMS5003;38833;51.142;-0.974;2022-11-13T05:58:50;2;1;
44312;PMS5003;38833;51.142;-0.974;2022-11-13T06:01:25;0;0;
44312;PMS5003;38833;51.142;-0.974;2022-11-13T06:03:59;0;0;
44312;PMS5003;38833;51.142;-0.974;2022-11-13T06:06:33;2;1;
44312;PMS5003;38833;51.142;-0.974;2022-11-13T06:09:07;1;1;
44312;PMS5003;38833;51.142;-0.974;2022-11-13T06:11:41;0;0;
44312;PMS5003;38833;51.142;-0.974;2022-11-13T06:14:15;0;0;
44312;PMS5003;38833;51.142;-0.974;2022-11-13T06:16:48;1;1;
44312;PMS5003;38833;51.142;-0.974;2022-11-13T06:19:21;0;0;
44312;PMS5003;38833;51.142;-0.974;2022-11-13T06:21:55;0;0;
44312;PMS5003;38833;51.142;-0.974;2022-11-13T06:24:28;0;0;
44312;PMS5003;38833;51.142;-0.974;2022-11-13T06:27:01;0;0;
44312;PMS5003;38833;51.142;-0.974;2022-11-13T06:29:34;1;1;
44312;PMS5003;38833;51.142;-0.974;2022-11-13T06:32:07;1;1;
44312;PMS5003;38833;51.142;-0.974;2022-11-13T06:34:41;0;0;
44312;PMS5003;38833;51.142;-0.974;2022-11-13T06:37:14;14;13;
44312;PMS5003;38833;51.142;-0.974;2022-11-13T06:39:47;8;8;
44312;PMS5003;38833;51.142;-0.974;2022-11-13T06:42:21;2;1;
44312;PMS5003;38833;51.142;-0.974;2022-11-13T06:44:54;2;1;
44312;PMS5003;38833;51.142;-0.974;2022-11-13T06:47:27;4;1;
44312;PMS5003;38833;51.142;-0.974;2022-11-13T06:50:00;0;0;
44312;PMS5003;38833;51.142;-0.974;2022-11-13T06:52:33;0;0;
44312;PMS5003;38833;51.142;-0.974;2022-11-13T06:55:07;0;0;
44312;PMS5003;38833;51.142;-0.974;2022-11-13T06:57:40;1;1;
44312;PMS5003;38833;51.142;-0.974;2022-11-13T07:00:14;2;0;
44312;PMS5003;38833;51.142;-0.974;2022-11-13T07:02:48;1;1;
44312;PMS5003;38833;51.142;-0.974;2022-11-13T07:05:22;0;0;
44312;PMS5003;38833;51.142;-0.974;2022-11-13T07:07:55;2;1;
44312;PMS5003;38833;51.142;-0.974;2022-11-13T07:10:28;1;1;
44312;PMS5003;38833;51.142;-0.974;2022-11-13T07:13:01;0;0;
44312;PMS5003;38833;51.142;-0.974;2022-11-13T07:15:35;0;0;
44312;PMS5003;38833;51.142;-0.974;2022-11-13T07:18:10;1;1;
44312;PMS5003;38833;51.142;-0.974;2022-11-13T07:20:43;0;0;
44312;PMS5003;38833;51.142;-0.974;2022-11-13T07:23:16;0;0;
44312;PMS5003;38833;51.142;-0.974;2022-11-13T07:25:51;0;0;
44312;PMS5003;38833;51.142;-0.974;2022-11-13T07:28:25;0;0;
44312;PMS5003;38833;51.142;-0.974;2022-11-13T07:30:58;1;1;
44312;PMS5003;38833;51.142;-0.974;2022-11-13T07:33:32;1;1;
44312;PMS5003;38833;51.142;-0.974;2022-11-13T07:36:06;1;0;
44312;PMS5003;38833;51.142;-0.974;2022-11-13T07:38:40;0;0;
44312;PMS5003;38833;51.142;-0.974;2022-11-13T07:41:13;1;0;
44312;PMS5003;38833;51.142;-0.974;2022-11-13T07:43:46;0;0;
44312;PMS5003;38833;51.142;-0.974;2022-11-13T07:46:19;1;0;
44312;PMS5003;38833;51.142;-0.974;2022-11-13T07:48:53;0;0;
44312;PMS5003;38833;51.142;-0.974;2022-11-13T07:51:26;0;0;
44312;PMS5003;38833;51.142;-0.974;2022-11-13T07:53:59;0;0;
44312;PMS5003;38833;51.142;-0.974;2022-11-13T07:56:32;0;0;
44312;PMS5003;38833;51.142;-0.974;2022-11-13T07:59:05;1;0;
44312;PMS5003;38833;51.142;-0.974;2022-11-13T08:01:38;0;0;
44312;PMS5003;38833;51.142;-0.974;2022-11-13T08:04:12;2;2;
44312;PMS5003;38833;51.142;-0.974;2022-11-13T08:06:45;1;1;
44312;PMS5003;38833;51.142;-0.974;2022-11-13T08:09:18;0;0;
44312;PMS5003;38833;51.142;-0.974;2022-11-13T08:11:51;1;1;
44312;PMS5003;38833;51.142;-0.974;2022-11-13T08:14:24;1;0;
44312;PMS5003;38833;51.142;-0.974;2022-11-13T08:16:58;0;0;
44312;PMS5003;38833;51.142;-0.974;2022-11-13T08:19:31;0;0;
44312;PMS5003;38833;51.142;-0.974;2022-11-13T08:22:04;0;0;
44312;PMS5003;38833;51.142;-0.974;2022-11-13T08:24:37;1;0;
44312;PMS5003;38833;51.142;-0.974;2022-11-13T08:27:10;0;0;
44312;PMS5003;38833;51.142;-0.974;2022-11-13T08:29:44;0;0;
44312;PMS5003;38833;51.142;-0.974;2022-11-13T08:32:17;0;0;
44312;PMS5003;38833;51.142;-0.974;2022-11-13T08:34:51;2;0;
44312;PMS5003;38833;51.142;-0.974;2022-11-13T08:37:25;0;0;
44312;PMS5003;38833;51.142;-0.974;2022-11-13T08:39:58;4;1;
44312;PMS5003;38833;51.142;-0.974;2022-11-13T08:42:31;0;0;
44312;PMS5003;38833;51.142;-0.974;2022-11-13T08:45:05;0;0;
44312;PMS5003;38833;51.142;-0.974;2022-11-13T08:47:39;0;0;
44312;PMS5003;38833;51.142;-0.974;2022-11-13T08:50:12;0;0;
44312;PMS5003;38833;51.142;-0.974;2022-11-13T08:52:46;0;0;
44312;PMS5003;38833;51.142;-0.974;2022-11-13T08:55:19;0;0;
44312;PMS5003;38833;51.142;-0.974;2022-11-13T08:57:52;0;0;
44312;PMS5003;38833;51.142;-0.974;2022-11-13T09:00:29;1;1;
44312;PMS5003;38833;51.142;-0.974;2022-11-13T09:03:04;0;0;
44312;PMS5003;38833;51.142;-0.974;2022-11-13T09:05:38;0;0;
44312;PMS5003;38833;51.142;-0.974;2022-11-13T09:08:11;3;0;
44312;PMS5003;38833;51.142;-0.974;2022-11-13T09:10:45;1;1;
44312;PMS5003;38833;51.142;-0.974;2022-11-13T09:13:18;0;0;
44312;PMS5003;38833;51.142;-0.974;2022-11-13T09:15:51;0;0;
44312;PMS5003;38833;51.142;-0.974;2022-11-13T09:18:25;0;0;
44312;PMS5003;38833;51.142;-0.974;2022-11-13T09:20:59;0;0;
44312;PMS5003;38833;51.142;-0.974;2022-11-13T09:23:33;1;1;
44312;PMS5003;38833;51.142;-0.974;2022-11-13T09:26:06;2;2;
44312;PMS5003;38833;51.142;-0.974;2022-11-13T09:28:39;1;1;
44312;PMS5003;38833;51.142;-0.974;2022-11-13T09:31:14;1;1;
44312;PMS5003;38833;51.142;-0.974;2022-11-13T09:33:47;1;1;
44312;PMS5003;38833;51.142;-0.974;2022-11-13T09:36:21;3;3;
44312;PMS5003;38833;51.142;-0.974;2022-11-13T09:38:54;0;0;
44312;PMS5003;38833;51.142;-0.974;2022-11-13T09:41:28;1;1;
44312;PMS5003;38833;51.142;-0.974;2022-11-13T09:44:06;4;2;
44312;PMS5003;38833;51.142;-0.974;2022-11-13T09:46:48;2;2;
44312;PMS5003;38833;51.142;-0.974;2022-11-13T09:49:26;1;1;
44312;PMS5003;38833;51.142;-0.974;2022-11-13T09:52:04;3;1;
44312;PMS5003;38833;51.142;-0.974;2022-11-13T09:54:45;1;1;
44312;PMS5003;38833;51.142;-0.974;2022-11-13T09:57:23;2;1;
44312;PMS5003;38833;51.142;-0.974;2022-11-13T10:00:03;2;2;
44312;PMS5003;38833;51.142;-0.974;2022-11-13T10:02:44;2;1;
44312;PMS5003;38833;51.142;-0.974;2022-11-13T10:05:31;0;0;
44312;PMS5003;38833;51.142;-0.974;2022-11-13T10:08:11;3;1;
44312;PMS5003;38833;51.142;-0.974;2022-11-13T10:10:48;2;1;
44312;PMS5003;38833;51.142;-0.974;2022-11-13T10:13:24;1;1;
44312;PMS5003;38833;51.142;-0.974;2022-11-13T10:16:03;1;1;
44312;PMS5003;38833;51.142;-0.974;2022-11-13T10:18:43;2;1;
44312;PMS5003;38833;51.142;-0.974;2022-11-13T10:21:23;1;1;
44312;PMS5003;38833;51.142;-0.974;2022-11-13T10:24:04;1;1;
44312;PMS5003;38833;51.142;-0.974;2022-11-13T10:26:47;1;1;
44312;PMS5003;38833;51.142;-0.974;2022-11-13T10:29:20;1;1;
44312;PMS5003;38833;51.142;-0.974;2022-11-13T10:31:54;0;0;
44312;PMS5003;38833;51.142;-0.974;2022-11-13T10:34:28;1;1;
44312;PMS5003;38833;51.142;-0.974;2022-11-13T10:37:10;0;0;
44312;PMS5003;38833;51.142;-0.974;2022-11-13T10:39:53;1;1;
44312;PMS5003;38833;51.142;-0.974;2022-11-13T10:42:26;0;0;
44312;PMS5003;38833;51.142;-0.974;2022-11-13T10:45:01;0;0;
44312;PMS5003;38833;51.142;-0.974;2022-11-13T10:47:34;0;0;
44312;PMS5003;38833;51.142;-0.974;2022-11-13T10:50:19;1;1;
44312;PMS5003;38833;51.142;-0.974;2022-11-13T10:52:54;0;0;
44312;PMS5003;38833;51.142;-0.974;2022-11-13T10:55:34;1;1;
44312;PMS5003;38833;51.142;-0.974;2022-11-13T10:58:11;1;1;
44312;PMS5003;38833;51.142;-0.974;2022-11-13T11:00:46;1;1;
44312;PMS5003;38833;51.142;-0.974;2022-11-13T11:03:20;1;1;
44312;PMS5003;38833;51.142;-0.974;2022-11-13T11:05:56;0;0;
44312;PMS5003;38833;51.142;-0.974;2022-11-13T11:08:31;0;0;
44312;PMS5003;38833;51.142;-0.974;2022-11-13T11:11:06;1;1;
44312;PMS5003;38833;51.142;-0.974;2022-11-13T11:13:45;0;0;
44312;PMS5003;38833;51.142;-0.974;2022-11-13T11:16:20;1;1;
44312;PMS5003;38833;51.142;-0.974;2022-11-13T11:18:57;0;0;
44312;PMS5003;38833;51.142;-0.974;2022-11-13T11:21:33;1;1;
44312;PMS5003;38833;51.142;-0.974;2022-11-13T11:24:11;0;0;
44312;PMS5003;38833;51.142;-0.974;2022-11-13T11:26:52;2;1;
44312;PMS5003;38833;51.142;-0.974;2022-11-13T11:29:32;0;0;
44312;PMS5003;38833;51.142;-0.974;2022-11-13T11:32:12;1;1;
44312;PMS5003;38833;51.142;-0.974;2022-11-13T11:34:52;0;0;
44312;PMS5003;38833;51.142;-0.974;2022-11-13T11:37:30;1;1;
44312;PMS5003;38833;51.142;-0.974;2022-11-13T11:40:11;0;0;
44312;PMS5003;38833;51.142;-0.974;2022-11-13T11:42:54;1;1;
44312;PMS5003;38833;51.142;-0.974;2022-11-13T11:45:37;0;0;
44312;PMS5003;38833;51.142;-0.974;2022-11-13T11:48:15;0;0;
44312;PMS5003;38833;51.142;-0.974;2022-11-13T11:50:52;1;1;
44312;PMS5003;38833;51.142;-0.974;2022-11-13T11:53:33;0;0;
44312;PMS5003;38833;51.142;-0.974;2022-11-13T11:56:17;1;0;
44312;PMS5003;38833;51.142;-0.974;2022-11-13T11:59:00;1;0;
44312;PMS5003;38833;51.142;-0.974;2022-11-13T12:01:59;2;1;
44312;PMS5003;38833;51.142;-0.974;2022-11-13T12:04:51;2;1;
44312;PMS5003;38833;51.142;-0.974;2022-11-13T12:07:36;0;0;
44312;PMS5003;38833;51.142;-0.974;2022-11-13T12:10:21;1;1;
44312;PMS5003;38833;51.142;-0.974;2022-11-13T12:13:03;0;0;
44312;PMS5003;38833;51.142;-0.974;2022-11-13T12:15:48;0;0;
44312;PMS5003;38833;51.142;-0.974;2022-11-13T12:18:33;0;0;
44312;PMS5003;38833;51.142;-0.974;2022-11-13T12:21:17;1;1;
44312;PMS5003;38833;51.142;-0.974;2022-11-13T12:23:58;2;0;
44312;PMS5003;38833;51.142;-0.974;2022-11-13T12:26:50;0;0;
44312;PMS5003;38833;51.142;-0.974;2022-11-13T12:29:35;0;0;
44312;PMS5003;38833;51.142;-0.974;2022-11-13T12:32:22;1;0;
44312;PMS5003;38833;51.142;-0.974;2022-11-13T12:35:08;1;1;
44312;PMS5003;38833;51.142;-0.974;2022-11-13T12:37:48;1;1;
44312;PMS5003;38833;51.142;-0.974;2022-11-13T12:40:27;2;1;
44312;PMS5003;38833;51.142;-0.974;2022-11-13T12:43:14;0;0;
44312;PMS5003;38833;51.142;-0.974;2022-11-13T12:46:02;1;1;
44312;PMS5003;38833;51.142;-0.974;2022-11-13T12:48:40;1;0;
44312;PMS5003;38833;51.142;-0.974;2022-11-13T12:51:15;2;0;
44312;PMS5003;38833;51.142;-0.974;2022-11-13T12:53:50;1;1;
44312;PMS5003;38833;51.142;-0.974;2022-11-13T12:56:29;0;0;
44312;PMS5003;38833;51.142;-0.974;2022-11-13T12:59:05;0;0;
44312;PMS5003;38833;51.142;-0.974;2022-11-13T13:02:02;0;0;
44312;PMS5003;38833;51.142;-0.974;2022-11-13T13:05:00;0;0;
44312;PMS5003;38833;51.142;-0.974;2022-11-13T13:07:51;0;0;
44312;PMS5003;38833;51.142;-0.974;2022-11-13T13:10:44;2;0;
44312;PMS5003;38833;51.142;-0.974;2022-11-13T13:13:30;1;1;
44312;PMS5003;38833;51.142;-0.974;2022-11-13T13:16:18;1;0;
44312;PMS5003;38833;51.142;-0.974;2022-11-13T13:19:04;2;1;
44312;PMS5003;38833;51.142;-0.974;2022-11-13T13:21:40;0;0;
44312;PMS5003;38833;51.142;-0.974;2022-11-13T13:24:31;0;0;
44312;PMS5003;38833;51.142;-0.974;2022-11-13T13:27:19;2;1;
44312;PMS5003;38833;51.142;-0.974;2022-11-13T13:29:54;0;0;
44312;PMS5003;38833;51.142;-0.974;2022-11-13T13:32:32;0;0;
44312;PMS5003;38833;51.142;-0.974;2022-11-13T13:35:17;1;0;
44312;PMS5003;38833;51.142;-0.974;2022-11-13T13:37:56;1;1;
44312;PMS5003;38833;51.142;-0.974;2022-11-13T13:40:36;0;0;
44312;PMS5003;38833;51.142;-0.974;2022-11-13T13:43:18;0;0;
44312;PMS5003;38833;51.142;-0.974;2022-11-13T13:46:06;0;0;
44312;PMS5003;38833;51.142;-0.974;2022-11-13T13:48:45;0;0;
44312;PMS5003;38833;51.142;-0.974;2022-11-13T13:51:23;2;0;
44312;PMS5003;38833;51.142;-0.974;2022-11-13T13:54:00;0;0;
44312;PMS5003;38833;51.142;-0.974;2022-11-13T13:56:38;1;1;
44312;PMS5003;38833;51.142;-0.974;2022-11-13T13:59:13;1;1;
44312;PMS5003;38833;51.142;-0.974;2022-11-13T14:01:53;0;0;
44312;PMS5003;38833;51.142;-0.974;2022-11-13T14:04:27;2;1;
44312;PMS5003;38833;51.142;-0.974;2022-11-13T14:07:04;0;0;
44312;PMS5003;38833;51.142;-0.974;2022-11-13T14:10:02;0;0;
44312;PMS5003;38833;51.142;-0.974;2022-11-13T14:12:39;0;0;
44312;PMS5003;38833;51.142;-0.974;2022-11-13T14:15:20;0;0;
44312;PMS5003;38833;51.142;-0.974;2022-11-13T14:18:04;1;1;
44312;PMS5003;38833;51.142;-0.974;2022-11-13T14:20:40;0;0;
44312;PMS5003;38833;51.142;-0.974;2022-11-13T14:23:17;0;0;
44312;PMS5003;38833;51.142;-0.974;2022-11-13T14:25:54;1;0;
44312;PMS5003;38833;51.142;-0.974;2022-11-13T14:28:29;0;0;
44312;PMS5003;38833;51.142;-0.974;2022-11-13T14:31:04;0;0;
44312;PMS5003;38833;51.142;-0.974;2022-11-13T14:33:40;1;1;
44312;PMS5003;38833;51.142;-0.974;2022-11-13T14:36:23;2;2;
44312;PMS5003;38833;51.142;-0.974;2022-11-13T14:38:59;1;1;
44312;PMS5003;38833;51.142;-0.974;2022-11-13T14:41:34;2;2;
44312;PMS5003;38833;51.142;-0.974;2022-11-13T14:44:10;4;2;
44312;PMS5003;38833;51.142;-0.974;2022-11-13T14:46:44;3;2;
44312;PMS5003;38833;51.142;-0.974;2022-11-13T14:49:25;3;3;
44312;PMS5003;38833;51.142;-0.974;2022-11-13T14:52:00;3;3;
44312;PMS5003;38833;51.142;-0.974;2022-11-13T14:54:34;3;3;
44312;PMS5003;38833;51.142;-0.974;2022-11-13T14:57:09;4;4;
44312;PMS5003;38833;51.142;-0.974;2022-11-13T14:59:44;4;4;
44312;PMS5003;38833;51.142;-0.974;2022-11-13T15:02:17;5;5;
44312;PMS5003;38833;51.142;-0.974;2022-11-13T15:04:51;6;6;
44312;PMS5003;38833;51.142;-0.974;2022-11-13T15:07:27;8;8;
44312;PMS5003;38833;51.142;-0.974;2022-11-13T15:10:02;11;11;
44312;PMS5003;38833;51.142;-0.974;2022-11-13T15:12:35;11;11;
44312;PMS5003;38833;51.142;-0.974;2022-11-13T15:15:12;10;10;
44312;PMS5003;38833;51.142;-0.974;2022-11-13T15:17:46;10;10;
44312;PMS5003;38833;51.142;-0.974;2022-11-13T15:20:22;7;7;
44312;PMS5003;38833;51.142;-0.974;2022-11-13T15:22:58;6;6;
44312;PMS5003;38833;51.142;-0.974;2022-11-13T15:25:31;3;3;
44312;PMS5003;38833;51.142;-0.974;2022-11-13T15:28:04;1;1;
44312;PMS5003;38833;51.142;-0.974;2022-11-13T15:30:38;0;0;
44312;PMS5003;38833;51.142;-0.974;2022-11-13T15:33:12;1;1;
44312;PMS5003;38833;51.142;-0.974;2022-11-13T15:35:46;0;0;
44312;PMS5003;38833;51.142;-0.974;2022-11-13T15:38:19;0;0;
44312;PMS5003;38833;51.142;-0.974;2022-11-13T15:40:52;4;0;
44312;PMS5003;38833;51.142;-0.974;2022-11-13T15:43:26;1;1;
44312;PMS5003;38833;51.142;-0.974;2022-11-13T15:45:59;0;0;
44312;PMS5003;38833;51.142;-0.974;2022-11-13T15:48:32;0;0;
44312;PMS5003;38833;51.142;-0.974;2022-11-13T15:51:08;2;0;
44312;PMS5003;38833;51.142;-0.974;2022-11-13T15:53:47;1;0;
44312;PMS5003;38833;51.142;-0.974;2022-11-13T15:56:25;0;0;
44312;PMS5003;38833;51.142;-0.974;2022-11-13T15:59:00;0;0;
44312;PMS5003;38833;51.142;-0.974;2022-11-13T16:01:33;0;0;
44312;PMS5003;38833;51.142;-0.974;2022-11-13T16:04:07;0;0;
44312;PMS5003;38833;51.142;-0.974;2022-11-13T16:06:40;0;0;
44312;PMS5003;38833;51.142;-0.974;2022-11-13T16:09:14;0;0;
44312;PMS5003;38833;51.142;-0.974;2022-11-13T16:11:47;0;0;
44312;PMS5003;38833;51.142;-0.974;2022-11-13T16:14:21;0;0;
44312;PMS5003;38833;51.142;-0.974;2022-11-13T16:16:54;0;0;
44312;PMS5003;38833;51.142;-0.974;2022-11-13T16:19:27;1;1;
44312;PMS5003;38833;51.142;-0.974;2022-11-13T16:22:01;0;0;
44312;PMS5003;38833;51.142;-0.974;2022-11-13T16:24:34;0;0;
44312;PMS5003;38833;51.142;-0.974;2022-11-13T16:27:08;0;0;
44312;PMS5003;38833;51.142;-0.974;2022-11-13T16:29:46;3;2;
44312;PMS5003;38833;51.142;-0.974;2022-11-13T16:32:19;0;0;
44312;PMS5003;38833;51.142;-0.974;2022-11-13T16:34:53;0;0;
44312;PMS5003;38833;51.142;-0.974;2022-11-13T16:37:27;0;0;
44312;PMS5003;38833;51.142;-0.974;2022-11-13T16:40:00;0;0;
44312;PMS5003;38833;51.142;-0.974;2022-11-13T16:42:33;0;0;
44312;PMS5003;38833;51.142;-0.974;2022-11-13T16:45:07;1;1;
44312;PMS5003;38833;51.142;-0.974;2022-11-13T16:47:41;1;1;
44312;PMS5003;38833;51.142;-0.974;2022-11-13T16:50:16;0;0;
44312;PMS5003;38833;51.142;-0.974;2022-11-13T16:52:52;0;0;
44312;PMS5003;38833;51.142;-0.974;2022-11-13T16:55:26;0;0;
44312;PMS5003;38833;51.142;-0.974;2022-11-13T16:57:59;0;0;
44312;PMS5003;38833;51.142;-0.974;2022-11-13T17:00:32;0;0;
44312;PMS5003;38833;51.142;-0.974;2022-11-13T17:03:10;1;0;
44312;PMS5003;38833;51.142;-0.974;2022-11-13T17:05:50;0;0;
44312;PMS5003;38833;51.142;-0.974;2022-11-13T17:08:23;0;0;
44312;PMS5003;38833;51.142;-0.974;2022-11-13T17:11:01;0;0;
44312;PMS5003;38833;51.142;-0.974;2022-11-13T17:13:43;0;0;
44312;PMS5003;38833;51.142;-0.974;2022-11-13T17:16:20;4;1;
44312;PMS5003;38833;51.142;-0.974;2022-11-13T17:18:54;0;0;
44312;PMS5003;38833;51.142;-0.974;2022-11-13T17:21:29;0;0;
44312;PMS5003;38833;51.142;-0.974;2022-11-13T17:24:02;0;0;
44312;PMS5003;38833;51.142;-0.974;2022-11-13T17:26:36;0;0;
44312;PMS5003;38833;51.142;-0.974;2022-11-13T17:29:09;1;0;
44312;PMS5003;38833;51.142;-0.974;2022-11-13T17:31:42;1;0;